• Join FlightAware (Why Join?)
  • Login
  • US Flag 
03:45AM EDT


 

Airport Tracker/Info


-or-


 

Live Flight TrackerFlight Track Log ✈ LT912 ✈ 04-Jul-2013 ✈ CYPA - CYMM

Flight Track Log - Related Links

Times and Time Zones

All times are in EDT time to prevent confusion due to time zone crossing. See the LT912 flight status page for this flight to view local times or setup timezone preferences in your user account.

Time Position Orientation Groundspeed Altitude Reporting Facility
EDT Latitude Longitude Course Direction KTS MPH feet Rate Location/Type
09:24PM 53.2833 -105.7833 329° Northwest 160 184 5,500  Level Edmonton Center
09:25PM 53.3167 -105.8333 318° Northwest 150 173 6,800 1,260 Climbing Edmonton Center
09:26PM 53.3500 -105.9000 310° West 170 196 8,100 1,320 Climbing Edmonton Center
09:27PM 53.3833 -105.9500 318° Northwest 160 184 9,500 1,320 Climbing Edmonton Center
09:28PM 53.5002 -106.0898 321° Northwest  Level FlightAware Approximate
09:28PM 53.4167 -105.9833 329° Northwest 170 196 10,800  Level Edmonton Center
09:29PM 53.5492 -106.1571 321° Northwest  Level FlightAware Approximate
09:29PM 53.4667 -106.0500 322° Northwest 170 196 12,200  Level Edmonton Center
09:30PM 53.5000 -106.1000 318° Northwest 180 207 13,500 1,200 Climbing Edmonton Center
09:31PM 53.5333 -106.1667 310° West 180 207 14,600 960 Climbing Edmonton Center
09:32PM 53.5833 -106.2167 329° Northwest 180 207 15,500 960 Climbing Edmonton Center
09:33PM 53.6167 -106.2833 310° West 180 207 16,600 900 Climbing Edmonton Center
09:34PM 53.6500 -106.3333 318° Northwest 200 230 17,400 960 Climbing Edmonton Center
09:35PM 53.7000 -106.4000 322° Northwest 190 219 18,600 1,020 Climbing Edmonton Center
09:36PM 53.7333 -106.4500 318° Northwest 190 219 19,500 840 Climbing Edmonton Center
09:37PM 53.7833 -106.5167 322° Northwest 200 230 20,300 840 Climbing Edmonton Center
09:38PM 53.8167 -106.5667 318° Northwest 190 219 21,200 780 Climbing Edmonton Center
09:39PM 53.8667 -106.6333 322° Northwest 190 219 21,900 360 Climbing Edmonton Center
09:40PM 53.9000 -106.6833 319° Northwest 200 230 22,000  Climbing Edmonton Center
09:41PM 53.9500 -106.7667 316° Northwest 210 242 22,000  Level Edmonton Center
09:42PM 54.0000 -106.8333 322° Northwest 220 253 22,000  Level Edmonton Center
09:43PM 54.0333 -106.9000 310° West 230 265 22,000  Level Edmonton Center
09:44PM 54.1000 -106.9833 324° Northwest 230 265 22,000  Level Edmonton Center
09:45PM 54.1500 -107.0500 322° Northwest 230 265 22,000  Level Edmonton Center
09:46PM 54.1667 -107.1333 289° West 230 265 22,000  Level Edmonton Center
09:47PM 54.2167 -107.2000 322° Northwest 230 265 22,000  Level Edmonton Center
09:48PM 54.2667 -107.2833 316° Northwest 230 265 22,000  Level Edmonton Center
09:49PM 54.3167 -107.3500 322° Northwest 220 253 22,000  Level Edmonton Center
09:50PM 54.3667 -107.4333 316° Northwest 230 265 22,000  Level Edmonton Center
09:51PM 54.4167 -107.5000 322° Northwest 220 253 22,000  Level Edmonton Center
09:52PM 54.4667 -107.5500 330° Northwest 220 253 22,000  Level Edmonton Center
09:53PM 54.5000 -107.6500 300° West 220 253 22,000  Level Edmonton Center
09:54PM 54.5500 -107.7000 330° Northwest 220 253 22,000  Level Edmonton Center
09:55PM 54.6000 -107.8000 311° West 220 253 22,000  Level Edmonton Center
09:56PM 54.6500 -107.8667 322° Northwest 220 253 22,000  Level Edmonton Center
09:57PM 54.7000 -107.9167 330° Northwest 220 253 22,000  Level Edmonton Center
09:58PM 54.7500 -108.0167 311° West 220 253 22,000  Level Edmonton Center
09:59PM 54.7833 -108.0833 311° West 220 253 22,000  Level Edmonton Center
10:00PM 54.8333 -108.1667 316° Northwest 230 265 22,000  Level Edmonton Center
10:01PM 54.8833 -108.2333 323° Northwest 230 265 22,000  Level Edmonton Center
10:02PM 54.9333 -108.3000 323° Northwest 220 253 22,000  Level Edmonton Center
10:03PM 54.9667 -108.3833 305° West 220 253 22,000  Level Edmonton Center
10:04PM 55.0167 -108.4500 323° Northwest 230 265 22,000  Level Edmonton Center
10:05PM 55.0667 -108.5167 323° Northwest 220 253 22,000  Level Edmonton Center
10:06PM 55.1167 -108.6000 316° Northwest 230 265 22,000  Level Edmonton Center
10:07PM 55.1667 -108.6667 323° Northwest 230 265 22,000  Level Edmonton Center
10:08PM 55.2000 -108.7667 300° West 230 265 22,000  Level Edmonton Center
10:09PM 55.2500 -108.8333 323° Northwest 230 265 22,000  Level Edmonton Center
10:10PM 55.3000 -108.9167 317° Northwest 230 265 22,000  Level Edmonton Center
10:11PM 55.3500 -108.9833 323° Northwest 230 265 22,000  Level Edmonton Center
10:12PM 55.4000 -109.0833 311° West 230 265 22,000  Level Edmonton Center
10:13PM 55.4500 -109.1500 323° Northwest 230 265 22,000  Level Edmonton Center
10:14PM 55.4833 -109.2333 305° West 230 265 22,000  Level Edmonton Center
10:15PM 55.5333 -109.3000 323° Northwest 230 265 22,000  Level Edmonton Center
10:16PM 55.5833 -109.4000 312° West 230 265 22,000  Level Edmonton Center
10:17PM 55.6333 -109.4667 323° Northwest 230 265 22,000  Level Edmonton Center
10:18PM 55.6833 -109.5667 312° West 230 265 22,000  Level Edmonton Center
10:19PM 55.7333 -109.6333 323° Northwest 230 265 22,000  Level Edmonton Center
10:20PM 55.7833 -109.7333 312° West 230 265 22,000  Level Edmonton Center
10:21PM 55.8333 -109.8000 323° Northwest 230 265 22,000 -360 Level Edmonton Center
10:22PM 55.8667 -109.8833 306° West 230 265 21,300 -960 Descending Edmonton Center
10:23PM 55.9167 -109.9500 323° Northwest 260 299 20,100 -1,200 Descending Edmonton Center
10:24PM 55.9833 -110.0500 320° Northwest 270 311 18,900 -1,380 Descending Edmonton Center
10:25PM 56.0333 -110.1500 312° West 280 322 17,400 -1,380 Descending Edmonton Center
10:26PM 56.1000 -110.2500 320° Northwest 280 322 16,200 -1,260 Descending Edmonton Center
10:27PM 56.1500 -110.3500 312° West 270 311 14,900 -1,380 Descending Edmonton Center
10:28PM 56.1833 -110.4500 301° West 260 299 13,500 -1,500 Descending Edmonton Center
10:29PM 56.2500 -110.5500 320° Northwest 260 299 12,000 -1,500 Descending Edmonton Center
10:30PM 56.3000 -110.6167 324° Northwest 260 299 10,600 -1,440 Descending Edmonton Center
10:31PM 56.3500 -110.7167 312° West 260 299 9,200 -2,160 Descending Edmonton Center
10:32PM 56.4167 -110.8167 320° Northwest 270 311 6,300 -2,100 Descending Edmonton Center
10:33PM 56.4500 -110.9167 301° West 250 288 5,100 -1,200 Descending Edmonton Center
10:34PM 56.5000 -110.9833 324° Northwest 230 265 4,000 -1,380 Descending Edmonton Center
10:35PM 56.5667 -111.0333 338° Northwest 210 242 2,400 -960 Descending Edmonton Center
10:36PM 56.6000 -111.0667 331° Northwest 180 207 2,100 -180 Descending Edmonton Center
10:37PM 56.6333 -111.1333 312° West 160 184 2,100 -300 Level Edmonton Center
10:38PM 56.6333 -111.2000 270° West 150 173 1,600 -420 Descending Edmonton Center
10:39PM 56.6333 -111.2333 270° West 90 104 1,300 -300 Descending Edmonton Center